Aeroporto :
LOGIN :

Iscrizione | Disclaimer

   EN    FR    IT 

 










Sommario :    VFR   VFR Marginale   IFR   IFR Intensivo   IFR Molto Intensivo
Visibilità : 
Base nubi : 
>= 8 km
>= 3000ft
5 / 8 km
1000 / 3000 ft
1500m / 5 km
500 / 1000 ft
800 / 1500m
200 / 500 ft
< 800m
< 200 ft
Simboli :   Temporali  Nebbia  Neve Forte  Precipitazioni Forti  Vento > 20 kt
SIGMETs :   Varie  Temporali  Ghiacco  Turbolenza  Onda orograficha  Ceneri Vulcaniche







- Altitudine del aeroporto : 49 ft
- Codice IATA : GLZ


EHGR - Gilze-Rijen Airbase

ULTIMO METAR :
  • 240455Z AUTO 20001KT 9999 NCD 11/08 Q1015 BLU

METARs OBSOLETI :
  • 240425Z AUTO VRB02KT 9999 OVC085 10/08 Q1014 BLU
  • 240355Z AUTO VRB01KT 9999 FEW084 10/08 Q1014 BLU
  • 240325Z AUTO 24003KT 190V270 9999 SCT340 11/07 Q1014 BLU
  • 240255Z AUTO 18001KT 9999 BKN056 BKN062 BKN330 10/07 Q1014 BLU
  • 240225Z AUTO 20003KT 9999 FEW067 SCT074 11/08 Q1014 BLU

TAF TAF EHGR
Valido dal 24 a 05 ore il 24 a 17 ore UTC


240439Z 2405/2417 VRB02KT CAVOK
BECMG 2405/2407 25006KT
BECMG 2411/2413 32010KT
TEMPO 2412/2417 33011G24KT
Nessun NOTAM noto per questo aeroporto.



MetMap, La meteo Aeronautica in un colpo d'occhio ! - Copyright ORBIFLY Dicembre 2007 - Disclaimer

ORBIFLY MET'MAP TEAM :

Programmazione e sviluppo : Alexandra Zaïnal
Concezione e sviluppo : Baudouin d'Aumeries
Co-Programmazione e sviluppo : Marc-Olivier Méhu
Supporto tecnico e logistico : Manuel Goepfert
Aiuto per la traduzione : Arnaldo La Scala

Contatto : metmap@orbifly.com




FONTI E CREDITI :

   NOAA